sensor_id;sensor_type;location;lat;lon;timestamp;pressure;altitude;pressure_sealevel;temperature;humidity
75697;BME280;64312;44.738;20.612;2023-04-01T00:02:18;99173.28;;;15.94;48.87
75697;BME280;64312;44.738;20.612;2023-04-01T00:04:43;99173.81;;;15.91;49.34
75697;BME280;64312;44.738;20.612;2023-04-01T00:07:10;98905.84;;;14.46;49.43
75697;BME280;64312;44.738;20.612;2023-04-01T00:09:36;99109.84;;;15.73;49.30
75697;BME280;64312;44.738;20.612;2023-04-01T00:12:03;99078.97;;;15.57;49.66
75697;BME280;64312;44.738;20.612;2023-04-01T00:14:28;99101.59;;;15.41;49.86
75697;BME280;64312;44.738;20.612;2023-04-01T00:16:55;98949.19;;;14.46;50.18
75697;BME280;64312;44.738;20.612;2023-04-01T00:19:21;99142.50;;;15.61;50.29
75697;BME280;64312;44.738;20.612;2023-04-01T00:21:46;99146.06;;;15.62;50.44
75697;BME280;64312;44.738;20.612;2023-04-01T00:24:13;99165.50;;;15.76;51.07
75697;BME280;64312;44.738;20.612;2023-04-01T00:26:39;99187.47;;;15.74;51.13
75697;BME280;64312;44.738;20.612;2023-04-01T00:29:07;99134.69;;;15.43;51.18
75697;BME280;64312;44.738;20.612;2023-04-01T00:31:33;99098.75;;;15.31;51.06
75697;BME280;64312;44.738;20.612;2023-04-01T00:33:59;99119.69;;;15.35;51.05
75697;BME280;64312;44.738;20.612;2023-04-01T00:36:25;99119.53;;;15.25;51.05
75697;BME280;64312;44.738;20.612;2023-04-01T00:38:51;98913.88;;;14.19;51.38
75697;BME280;64312;44.738;20.612;2023-04-01T00:41:18;99078.50;;;15.16;51.69
75697;BME280;64312;44.738;20.612;2023-04-01T00:43:47;99149.69;;;15.51;52.14
75697;BME280;64312;44.738;20.612;2023-04-01T00:46:14;98964.94;;;14.16;52.72
75697;BME280;64312;44.738;20.612;2023-04-01T00:48:45;98939.94;;;14.08;52.49
75697;BME280;64312;44.738;20.612;2023-04-01T00:51:18;98763.38;;;13.02;52.84
75697;BME280;64312;44.738;20.612;2023-04-01T00:53:51;99093.59;;;15.07;53.05
75697;BME280;64312;44.738;20.612;2023-04-01T00:56:24;99126.13;;;15.29;53.18
75697;BME280;64312;44.738;20.612;2023-04-01T00:58:58;99114.94;;;15.26;53.39
75697;BME280;64312;44.738;20.612;2023-04-01T01:01:28;99123.16;;;15.31;53.40
75697;BME280;64312;44.738;20.612;2023-04-01T01:03:54;99095.91;;;15.21;53.84
75697;BME280;64312;44.738;20.612;2023-04-01T01:17:36;99100.25;;;15.22;54.67
75697;BME280;64312;44.738;20.612;2023-04-01T01:26:00;99099.88;;;15.13;54.80
75697;BME280;64312;44.738;20.612;2023-04-01T01:28:48;99067.53;;;14.84;55.70
75697;BME280;64312;44.738;20.612;2023-04-01T01:36:37;99056.22;;;14.71;55.96
75697;BME280;64312;44.738;20.612;2023-04-01T01:39:08;99068.63;;;14.67;56.41
75697;BME280;64312;44.738;20.612;2023-04-01T01:41:37;99116.66;;;14.93;57.04
75697;BME280;64312;44.738;20.612;2023-04-01T01:44:07;99141.84;;;14.88;56.96
75697;BME280;64312;44.738;20.612;2023-04-01T01:46:34;98884.28;;;13.40;57.56
75697;BME280;64312;44.738;20.612;2023-04-01T01:49:01;99101.53;;;14.75;57.18
75697;BME280;64312;44.738;20.612;2023-04-01T01:51:29;99111.47;;;14.70;57.55
75697;BME280;64312;44.738;20.612;2023-04-01T01:53:55;99067.72;;;14.44;57.99
75697;BME280;64312;44.738;20.612;2023-04-01T01:56:23;99096.84;;;14.71;58.03
75697;BME280;64312;44.738;20.612;2023-04-01T01:58:55;98961.03;;;13.90;58.17
75697;BME280;64312;44.738;20.612;2023-04-01T02:01:27;99087.00;;;14.65;58.24
75697;BME280;64312;44.738;20.612;2023-04-01T02:03:57;98901.63;;;13.61;58.45
75697;BME280;64312;44.738;20.612;2023-04-01T02:06:28;98995.63;;;14.21;58.55
75697;BME280;64312;44.738;20.612;2023-04-01T02:09:00;99110.16;;;14.72;58.28
75697;BME280;64312;44.738;20.612;2023-04-01T02:11:57;99081.91;;;14.68;58.75
75697;BME280;64312;44.738;20.612;2023-04-01T02:14:28;99095.97;;;14.65;59.29
75697;BME280;64312;44.738;20.612;2023-04-01T02:16:58;98906.22;;;13.27;59.59
75697;BME280;64312;44.738;20.612;2023-04-01T02:19:29;99066.09;;;14.26;59.34
75697;BME280;64312;44.738;20.612;2023-04-01T02:22:01;99065.59;;;14.29;59.44
75697;BME280;64312;44.738;20.612;2023-04-01T02:24:30;99079.28;;;14.23;59.14
75697;BME280;64312;44.738;20.612;2023-04-01T02:26:57;99103.91;;;14.38;59.35
75697;BME280;64312;44.738;20.612;2023-04-01T02:29:24;99074.47;;;14.25;59.84
75697;BME280;64312;44.738;20.612;2023-04-01T02:31:54;99033.94;;;13.96;60.06
75697;BME280;64312;44.738;20.612;2023-04-01T02:34:21;98909.53;;;13.17;60.05
75697;BME280;64312;44.738;20.612;2023-04-01T02:36:49;99064.94;;;14.22;60.19
75697;BME280;64312;44.738;20.612;2023-04-01T02:39:15;99076.50;;;14.34;59.99
75697;BME280;64312;44.738;20.612;2023-04-01T02:41:43;99063.28;;;14.21;60.57
75697;BME280;64312;44.738;20.612;2023-04-01T02:44:10;99004.59;;;13.88;60.76
75697;BME280;64312;44.738;20.612;2023-04-01T02:46:36;99084.31;;;14.31;61.79
75697;BME280;64312;44.738;20.612;2023-04-01T02:49:03;99089.94;;;14.29;62.04
75697;BME280;64312;44.738;20.612;2023-04-01T02:51:29;99118.34;;;14.44;62.68
75697;BME280;64312;44.738;20.612;2023-04-01T02:53:54;98978.59;;;13.70;62.60
75697;BME280;64312;44.738;20.612;2023-04-01T02:56:20;98962.69;;;13.57;62.98
75697;BME280;64312;44.738;20.612;2023-04-01T02:58:47;99067.50;;;14.12;63.26
75697;BME280;64312;44.738;20.612;2023-04-01T03:01:13;99000.22;;;13.70;63.45
75697;BME280;64312;44.738;20.612;2023-04-01T03:03:39;99045.97;;;13.89;63.14
75697;BME280;64312;44.738;20.612;2023-04-01T03:06:07;98870.00;;;12.83;63.30
75697;BME280;64312;44.738;20.612;2023-04-01T03:08:33;99045.66;;;13.85;63.40
75697;BME280;64312;44.738;20.612;2023-04-01T03:10:59;99045.63;;;13.68;63.98
75697;BME280;64312;44.738;20.612;2023-04-01T03:13:24;99081.66;;;14.02;63.75
75697;BME280;64312;44.738;20.612;2023-04-01T03:15:50;99028.78;;;13.49;64.16
75697;BME280;64312;44.738;20.612;2023-04-01T03:18:15;98831.50;;;12.47;64.16
75697;BME280;64312;44.738;20.612;2023-04-01T03:20:41;99027.16;;;13.65;64.77
75697;BME280;64312;44.738;20.612;2023-04-01T03:23:08;98986.41;;;13.38;64.76
75697;BME280;64312;44.738;20.612;2023-04-01T03:25:34;98875.56;;;12.76;65.37
75697;BME280;64312;44.738;20.612;2023-04-01T03:27:59;99101.50;;;14.08;65.68
75697;BME280;64312;44.738;20.612;2023-04-01T03:30:26;99079.00;;;13.91;66.25
75697;BME280;64312;44.738;20.612;2023-04-01T03:32:52;99103.81;;;13.99;66.13
75697;BME280;64312;44.738;20.612;2023-04-01T03:35:18;98844.22;;;12.35;66.11
75697;BME280;64312;44.738;20.612;2023-04-01T03:37:45;99025.81;;;13.34;66.59
75697;BME280;64312;44.738;20.612;2023-04-01T03:40:11;99025.72;;;13.46;67.16
75697;BME280;64312;44.738;20.612;2023-04-01T03:42:36;98909.88;;;12.64;67.72
75697;BME280;64312;44.738;20.612;2023-04-01T03:45:03;99072.88;;;13.78;67.78
75697;BME280;64312;44.738;20.612;2023-04-01T03:47:29;99065.78;;;13.61;68.00
75697;BME280;64312;44.738;20.612;2023-04-01T03:49:55;99071.91;;;13.56;68.08
75697;BME280;64312;44.738;20.612;2023-04-01T03:52:21;99083.78;;;13.55;68.28
75697;BME280;64312;44.738;20.612;2023-04-01T03:54:47;99054.91;;;13.44;68.30
75697;BME280;64312;44.738;20.612;2023-04-01T03:57:13;99102.31;;;13.63;68.80
75697;BME280;64312;44.738;20.612;2023-04-01T03:59:39;99053.38;;;13.48;68.92
75697;BME280;64312;44.738;20.612;2023-04-01T04:02:05;99037.69;;;13.33;69.03
75697;BME280;64312;44.738;20.612;2023-04-01T04:04:31;98966.97;;;12.84;69.43
75697;BME280;64312;44.738;20.612;2023-04-01T04:06:57;98689.13;;;11.17;69.50
75697;BME280;64312;44.738;20.612;2023-04-01T04:09:24;99040.75;;;13.25;69.44
75697;BME280;64312;44.738;20.612;2023-04-01T04:11:50;98763.25;;;11.54;70.18
75697;BME280;64312;44.738;20.612;2023-04-01T04:14:16;99045.44;;;13.18;69.95
75697;BME280;64312;44.738;20.612;2023-04-01T04:16:44;98995.63;;;12.85;70.21
75697;BME280;64312;44.738;20.612;2023-04-01T04:19:09;99078.44;;;13.32;69.96
75697;BME280;64312;44.738;20.612;2023-04-01T04:21:35;99089.22;;;13.43;69.94
75697;BME280;64312;44.738;20.612;2023-04-01T04:24:02;99095.13;;;13.40;70.21
75697;BME280;64312;44.738;20.612;2023-04-01T04:26:40;98756.81;;;11.44;70.60
75697;BME280;64312;44.738;20.612;2023-04-01T04:29:06;98855.31;;;12.10;70.77
75697;BME280;64312;44.738;20.612;2023-04-01T04:31:32;99022.19;;;12.88;70.88
75697;BME280;64312;44.738;20.612;2023-04-01T04:34:00;98845.59;;;11.97;70.64
75697;BME280;64312;44.738;20.612;2023-04-01T04:36:32;99047.22;;;13.24;70.91
75697;BME280;64312;44.738;20.612;2023-04-01T04:38:58;98975.94;;;12.73;71.00
75697;BME280;64312;44.738;20.612;2023-04-01T04:41:27;98895.38;;;12.41;71.16
75697;BME280;64312;44.738;20.612;2023-04-01T04:43:55;99023.41;;;13.21;71.08
75697;BME280;64312;44.738;20.612;2023-04-01T04:46:23;99010.88;;;13.20;71.53
75697;BME280;64312;44.738;20.612;2023-04-01T04:48:56;98997.34;;;13.03;71.60
75697;BME280;64312;44.738;20.612;2023-04-01T04:51:22;98860.13;;;12.19;72.28
75697;BME280;64312;44.738;20.612;2023-04-01T04:53:48;98712.06;;;11.19;71.79
75697;BME280;64312;44.738;20.612;2023-04-01T04:56:21;99017.28;;;13.14;72.65
75697;BME280;64312;44.738;20.612;2023-04-01T04:58:58;98923.66;;;12.51;72.48
75697;BME280;64312;44.738;20.612;2023-04-01T05:01:35;98909.53;;;12.48;72.71
75697;BME280;64312;44.738;20.612;2023-04-01T05:04:01;98937.06;;;12.74;72.76
75697;BME280;64312;44.738;20.612;2023-04-01T05:06:27;98952.81;;;12.77;73.25
75697;BME280;64312;44.738;20.612;2023-04-01T05:08:55;98941.53;;;12.68;73.38
75697;BME280;64312;44.738;20.612;2023-04-01T05:11:22;98995.03;;;12.95;73.16
75697;BME280;64312;44.738;20.612;2023-04-01T05:13:49;98983.63;;;12.93;73.12
75697;BME280;64312;44.738;20.612;2023-04-01T05:16:18;99058.78;;;13.08;73.33
75697;BME280;64312;44.738;20.612;2023-04-01T05:18:44;99040.31;;;13.05;72.91
75697;BME280;64312;44.738;20.612;2023-04-01T05:21:11;99011.66;;;13.04;73.09
75697;BME280;64312;44.738;20.612;2023-04-01T05:23:37;98976.13;;;12.95;73.35
75697;BME280;64312;44.738;20.612;2023-04-01T05:26:12;98920.78;;;12.69;73.61
75697;BME280;64312;44.738;20.612;2023-04-01T05:28:40;98988.69;;;13.18;73.19
75697;BME280;64312;44.738;20.612;2023-04-01T05:31:07;98968.19;;;13.05;73.29
75697;BME280;64312;44.738;20.612;2023-04-01T05:33:36;98972.88;;;13.10;73.61
75697;BME280;64312;44.738;20.612;2023-04-01T05:36:12;98949.13;;;13.12;73.20
75697;BME280;64312;44.738;20.612;2023-04-01T05:38:39;98895.94;;;12.84;73.54
75697;BME280;64312;44.738;20.612;2023-04-01T05:41:09;98946.50;;;13.28;73.23
75697;BME280;64312;44.738;20.612;2023-04-01T05:43:42;98738.53;;;11.98;73.52
75697;BME280;64312;44.738;20.612;2023-04-01T05:46:27;98715.75;;;11.65;73.74
75697;BME280;64312;44.738;20.612;2023-04-01T05:48:58;98974.25;;;13.24;74.54
75697;BME280;64312;44.738;20.612;2023-04-01T05:51:25;98983.69;;;13.10;74.47
75697;BME280;64312;44.738;20.612;2023-04-01T05:53:50;98959.63;;;13.08;74.19
75697;BME280;64312;44.738;20.612;2023-04-01T05:56:17;98848.00;;;12.34;74.47
75697;BME280;64312;44.738;20.612;2023-04-01T05:58:51;98878.25;;;12.76;74.51
75697;BME280;64312;44.738;20.612;2023-04-01T06:01:17;98939.03;;;13.07;74.08
75697;BME280;64312;44.738;20.612;2023-04-01T06:03:44;98940.03;;;13.30;74.55
75697;BME280;64312;44.738;20.612;2023-04-01T06:06:23;98934.22;;;13.38;74.09
75697;BME280;64312;44.738;20.612;2023-04-01T06:08:52;98895.66;;;12.97;74.59
75697;BME280;64312;44.738;20.612;2023-04-01T06:11:30;98710.25;;;12.12;74.63
75697;BME280;64312;44.738;20.612;2023-04-01T06:17:04;98758.22;;;12.38;74.73
75697;BME280;64312;44.738;20.612;2023-04-01T06:36:19;98909.75;;;13.27;75.63
75697;BME280;64312;44.738;20.612;2023-04-01T06:44:48;98894.50;;;13.38;75.91
75697;BME280;64312;44.738;20.612;2023-04-01T06:51:37;98909.91;;;13.38;75.99
75697;BME280;64312;44.738;20.612;2023-04-01T06:54:35;98875.06;;;13.08;76.22
75697;BME280;64312;44.738;20.612;2023-04-01T06:59:50;98892.56;;;13.34;76.19
75697;BME280;64312;44.738;20.612;2023-04-01T07:02:52;98892.13;;;13.42;75.89
75697;BME280;64312;44.738;20.612;2023-04-01T07:05:11;98923.84;;;13.46;76.01
75697;BME280;64312;44.738;20.612;2023-04-01T07:07:45;98879.63;;;13.52;75.70
75697;BME280;64312;44.738;20.612;2023-04-01T07:13:10;98920.66;;;13.66;75.21
75697;BME280;64312;44.738;20.612;2023-04-01T07:18:58;98865.69;;;13.61;74.72
75697;BME280;64312;44.738;20.612;2023-04-01T07:25:05;98897.44;;;13.87;74.85
75697;BME280;64312;44.738;20.612;2023-04-01T07:27:31;98787.44;;;13.54;74.35
75697;BME280;64312;44.738;20.612;2023-04-01T07:29:57;98833.13;;;14.11;73.96
75697;BME280;64312;44.738;20.612;2023-04-01T07:32:35;98842.03;;;14.33;73.71
75697;BME280;64312;44.738;20.612;2023-04-01T07:39:03;98834.38;;;14.74;73.43
75697;BME280;64312;44.738;20.612;2023-04-01T07:42:07;98814.13;;;14.77;72.72
75697;BME280;64312;44.738;20.612;2023-04-01T07:55:50;98800.22;;;15.32;71.21
75697;BME280;64312;44.738;20.612;2023-04-01T08:03:43;98845.66;;;15.84;69.87
75697;BME280;64312;44.738;20.612;2023-04-01T08:06:19;98838.78;;;15.72;70.15
75697;BME280;64312;44.738;20.612;2023-04-01T08:09:25;98839.53;;;15.62;69.88
75697;BME280;64312;44.738;20.612;2023-04-01T08:19:09;98791.22;;;14.89;70.43
75697;BME280;64312;44.738;20.612;2023-04-01T08:21:44;98821.34;;;14.98;70.63
75697;BME280;64312;44.738;20.612;2023-04-01T08:24:29;98867.44;;;15.30;70.59
75697;BME280;64312;44.738;20.612;2023-04-01T08:27:00;98834.53;;;15.16;70.98
75697;BME280;64312;44.738;20.612;2023-04-01T08:32:06;98799.81;;;15.13;70.16
75697;BME280;64312;44.738;20.612;2023-04-01T08:34:40;98726.13;;;14.84;70.46
75697;BME280;64312;44.738;20.612;2023-04-01T08:37:19;98854.22;;;15.66;69.89
75697;BME280;64312;44.738;20.612;2023-04-01T08:45:28;98842.25;;;15.62;69.81
75697;BME280;64312;44.738;20.612;2023-04-01T09:12:28;98774.59;;;17.06;64.42
75697;BME280;64312;44.738;20.612;2023-04-01T09:28:42;98791.44;;;17.54;61.73
75697;BME280;64312;44.738;20.612;2023-04-01T09:31:37;98787.63;;;17.50;61.57
75697;BME280;64312;44.738;20.612;2023-04-01T09:37:53;98766.72;;;17.15;61.71
75697;BME280;64312;44.738;20.612;2023-04-01T09:40:58;98781.69;;;17.32;62.03
75697;BME280;64312;44.738;20.612;2023-04-01T09:46:50;98564.75;;;15.77;61.68
75697;BME280;64312;44.738;20.612;2023-04-01T09:49:40;98783.31;;;17.08;62.30
75697;BME280;64312;44.738;20.612;2023-04-01T09:55:21;98577.53;;;15.81;62.34
75697;BME280;64312;44.738;20.612;2023-04-01T10:06:57;98663.09;;;16.19;63.61
75697;BME280;64312;44.738;20.612;2023-04-01T10:20:52;98596.28;;;15.25;66.18
75697;BME280;64312;44.738;20.612;2023-04-01T10:40:53;98801.13;;;13.47;78.59
75697;BME280;64312;44.738;20.612;2023-04-01T10:54:48;98827.69;;;11.21;83.74
75697;BME280;64312;44.738;20.612;2023-04-01T10:58:00;98846.72;;;10.96;84.31
75697;BME280;64312;44.738;20.612;2023-04-01T11:07:40;98671.00;;;9.27;87.17
75697;BME280;64312;44.738;20.612;2023-04-01T11:32:46;98913.34;;;10.70;88.93
75697;BME280;64312;44.738;20.612;2023-04-01T11:55:23;98827.72;;;9.57;89.24
75697;BME280;64312;44.738;20.612;2023-04-01T12:14:40;99015.50;;;10.15;91.06
75697;BME280;64312;44.738;20.612;2023-04-01T12:20:00;99030.00;;;10.39;92.91
75697;BME280;64312;44.738;20.612;2023-04-01T12:25:39;99046.88;;;10.28;91.17
75697;BME280;64312;44.738;20.612;2023-04-01T12:33:47;99055.53;;;10.30;92.14
75697;BME280;64312;44.738;20.612;2023-04-01T12:36:40;99056.91;;;10.39;90.68
75697;BME280;64312;44.738;20.612;2023-04-01T12:44:41;99069.16;;;10.35;91.69
75697;BME280;64312;44.738;20.612;2023-04-01T12:47:27;99089.56;;;10.43;91.57
75697;BME280;64312;44.738;20.612;2023-04-01T12:50:16;99091.97;;;10.76;97.11
75697;BME280;64312;44.738;20.612;2023-04-01T13:01:03;99115.75;;;10.29;95.91
75697;BME280;64312;44.738;20.612;2023-04-01T13:28:27;99094.91;;;10.68;100.00
75697;BME280;64312;44.738;20.612;2023-04-01T13:39:42;99140.97;;;11.03;100.00
75697;BME280;64312;44.738;20.612;2023-04-01T13:45:22;99126.91;;;13.62;94.83
75697;BME280;64312;44.738;20.612;2023-04-01T13:53:28;99022.84;;;11.36;96.15
75697;BME280;64312;44.738;20.612;2023-04-01T13:58:58;99178.66;;;11.39;100.00
75697;BME280;64312;44.738;20.612;2023-04-01T14:01:31;99178.94;;;11.68;100.00
75697;BME280;64312;44.738;20.612;2023-04-01T14:20:58;99205.31;;;11.29;100.00
75697;BME280;64312;44.738;20.612;2023-04-01T14:37:09;99229.25;;;11.19;100.00
75697;BME280;64312;44.738;20.612;2023-04-01T14:48:36;99213.34;;;10.93;100.00
75697;BME280;64312;44.738;20.612;2023-04-01T14:51:16;99202.41;;;10.88;100.00
75697;BME280;64312;44.738;20.612;2023-04-01T14:56:51;99210.41;;;10.94;100.00
75697;BME280;64312;44.738;20.612;2023-04-01T14:59:28;99200.63;;;11.00;99.96
75697;BME280;64312;44.738;20.612;2023-04-01T15:04:58;99210.41;;;12.99;96.47
75697;BME280;64312;44.738;20.612;2023-04-01T15:10:53;99224.63;;;12.95;93.12
75697;BME280;64312;44.738;20.612;2023-04-01T15:24:23;99202.91;;;12.90;81.33
75697;BME280;64312;44.738;20.612;2023-04-01T15:27:16;99220.16;;;13.00;81.12
75697;BME280;64312;44.738;20.612;2023-04-01T15:41:15;99096.63;;;12.26;79.38
75697;BME280;64312;44.738;20.612;2023-04-01T15:43:47;99214.28;;;12.92;79.37
75697;BME280;64312;44.738;20.612;2023-04-01T15:49:30;99227.22;;;13.01;79.16
75697;BME280;64312;44.738;20.612;2023-04-01T15:52:19;99219.25;;;12.95;79.25
75697;BME280;64312;44.738;20.612;2023-04-01T16:00:27;99237.16;;;12.66;79.60
75697;BME280;64312;44.738;20.612;2023-04-01T16:05:42;99074.59;;;11.57;78.71
75697;BME280;64312;44.738;20.612;2023-04-01T16:22:04;99280.44;;;12.59;79.02
75697;BME280;64312;44.738;20.612;2023-04-01T16:24:54;99263.66;;;12.57;78.79
75697;BME280;64312;44.738;20.612;2023-04-01T16:29:56;99255.66;;;12.51;78.93
75697;BME280;64312;44.738;20.612;2023-04-01T16:32:45;99256.84;;;12.55;78.63
75697;BME280;64312;44.738;20.612;2023-04-01T16:46:33;99063.72;;;11.93;77.71
75697;BME280;64312;44.738;20.612;2023-04-01T16:49:28;99282.72;;;14.03;76.75
75697;BME280;64312;44.738;20.612;2023-04-01T17:02:10;99295.31;;;12.92;78.35
75697;BME280;64312;44.738;20.612;2023-04-01T17:04:48;99281.66;;;12.75;78.50
75697;BME280;64312;44.738;20.612;2023-04-01T17:16:01;99317.72;;;12.81;78.60
75697;BME280;64312;44.738;20.612;2023-04-01T17:18:58;99258.81;;;12.47;79.08
75697;BME280;64312;44.738;20.612;2023-04-01T17:24:17;99289.38;;;12.60;78.91
75697;BME280;64312;44.738;20.612;2023-04-01T17:44:30;99342.16;;;12.86;78.78
75697;BME280;64312;44.738;20.612;2023-04-01T17:52:33;99287.53;;;12.42;78.68
75697;BME280;64312;44.738;20.612;2023-04-01T18:06:31;99325.63;;;12.52;78.26
75697;BME280;64312;44.738;20.612;2023-04-01T18:15:05;99342.31;;;12.61;78.61
75697;BME280;64312;44.738;20.612;2023-04-01T18:20:41;99361.31;;;12.54;78.11
75697;BME280;64312;44.738;20.612;2023-04-01T18:23:39;99346.16;;;12.53;78.61
75697;BME280;64312;44.738;20.612;2023-04-01T18:26:31;99342.16;;;12.44;78.69
75697;BME280;64312;44.738;20.612;2023-04-01T18:31:46;99328.81;;;12.31;78.94
75697;BME280;64312;44.738;20.612;2023-04-01T18:34:29;99331.00;;;12.22;79.06
75697;BME280;64312;44.738;20.612;2023-04-01T18:37:39;99209.13;;;11.58;79.14
75697;BME280;64312;44.738;20.612;2023-04-01T18:40:28;99360.44;;;12.42;79.28
75697;BME280;64312;44.738;20.612;2023-04-01T18:45:43;99331.16;;;12.27;79.14
75697;BME280;64312;44.738;20.612;2023-04-01T18:48:33;99354.91;;;12.37;79.49
75697;BME280;64312;44.738;20.612;2023-04-01T18:51:02;99334.16;;;12.19;79.56
75697;BME280;64312;44.738;20.612;2023-04-01T18:53:55;99345.78;;;12.19;79.54
75697;BME280;64312;44.738;20.612;2023-04-01T18:58:54;99224.53;;;11.33;78.59
75697;BME280;64312;44.738;20.612;2023-04-01T19:06:51;99338.09;;;11.80;79.44
75697;BME280;64312;44.738;20.612;2023-04-01T19:09:31;99348.53;;;11.95;79.28
75697;BME280;64312;44.738;20.612;2023-04-01T19:14:59;99184.19;;;10.90;78.55
75697;BME280;64312;44.738;20.612;2023-04-01T19:20:41;99351.09;;;11.89;79.45
75697;BME280;64312;44.738;20.612;2023-04-01T19:25:58;99213.13;;;10.94;79.27
75697;BME280;64312;44.738;20.612;2023-04-01T19:33:49;99348.47;;;11.83;78.71
75697;BME280;64312;44.738;20.612;2023-04-01T19:36:29;99176.34;;;10.63;79.95
75697;BME280;64312;44.738;20.612;2023-04-01T19:41:34;99155.47;;;10.34;79.06
75697;BME280;64312;44.738;20.612;2023-04-01T19:52:36;99289.13;;;10.96;80.15
75697;BME280;64312;44.738;20.612;2023-04-01T19:58:02;99199.06;;;10.42;79.98
75697;BME280;64312;44.738;20.612;2023-04-01T20:00:34;99290.72;;;11.04;79.37
75697;BME280;64312;44.738;20.612;2023-04-01T20:03:10;99188.47;;;10.47;78.65
75697;BME280;64312;44.738;20.612;2023-04-01T20:05:53;99346.66;;;11.52;79.64
75697;BME280;64312;44.738;20.612;2023-04-01T20:08:38;99303.78;;;11.25;79.40
75697;BME280;64312;44.738;20.612;2023-04-01T20:14:15;99188.88;;;10.51;79.26
75697;BME280;64312;44.738;20.612;2023-04-01T20:19:12;99305.34;;;11.15;78.78
75697;BME280;64312;44.738;20.612;2023-04-01T20:21:43;99333.38;;;11.32;79.65
75697;BME280;64312;44.738;20.612;2023-04-01T20:24:25;99346.03;;;11.31;79.01
75697;BME280;64312;44.738;20.612;2023-04-01T20:29:56;99365.59;;;11.45;78.72
75697;BME280;64312;44.738;20.612;2023-04-01T20:33:01;99363.78;;;11.39;79.09
75697;BME280;64312;44.738;20.612;2023-04-01T20:36:06;99368.41;;;11.32;79.03
75697;BME280;64312;44.738;20.612;2023-04-01T20:39:04;99263.66;;;10.67;78.93
75697;BME280;64312;44.738;20.612;2023-04-01T20:44:19;99378.97;;;11.33;78.55
75697;BME280;64312;44.738;20.612;2023-04-01T20:52:41;99350.03;;;11.22;79.00
75697;BME280;64312;44.738;20.612;2023-04-01T21:06:09;99421.25;;;11.33;79.06
75697;BME280;64312;44.738;20.612;2023-04-01T21:11:38;99378.19;;;11.26;78.38
75697;BME280;64312;44.738;20.612;2023-04-01T21:29:02;99389.19;;;11.25;78.61
75697;BME280;64312;44.738;20.612;2023-04-01T21:31:38;99394.41;;;11.20;79.48
75697;BME280;64312;44.738;20.612;2023-04-01T21:39:32;99425.56;;;11.09;78.62
75697;BME280;64312;44.738;20.612;2023-04-01T21:50:34;99349.13;;;10.78;79.22
75697;BME280;64312;44.738;20.612;2023-04-01T21:56:37;99401.97;;;11.04;78.48
75697;BME280;64312;44.738;20.612;2023-04-01T21:59:26;99399.06;;;11.06;80.03
75697;BME280;64312;44.738;20.612;2023-04-01T22:02:09;99401.38;;;11.02;78.61
75697;BME280;64312;44.738;20.612;2023-04-01T22:05:04;99165.19;;;9.58;80.32
75697;BME280;64312;44.738;20.612;2023-04-01T22:07:41;99386.13;;;10.90;79.49
75697;BME280;64312;44.738;20.612;2023-04-01T22:16:39;99405.66;;;11.10;80.45
75697;BME280;64312;44.738;20.612;2023-04-01T22:18:45;99316.34;;;10.56;79.96
75697;BME280;64312;44.738;20.612;2023-04-01T22:21:20;99371.22;;;10.87;80.86
75697;BME280;64312;44.738;20.612;2023-04-01T22:29:07;99410.84;;;11.11;80.10
75697;BME280;64312;44.738;20.612;2023-04-01T22:31:53;99206.41;;;9.84;79.28
75697;BME280;64312;44.738;20.612;2023-04-01T22:42:36;99416.66;;;11.08;79.13
75697;BME280;64312;44.738;20.612;2023-04-01T22:50:54;99437.34;;;11.15;79.16
75697;BME280;64312;44.738;20.612;2023-04-01T22:56:01;99330.81;;;10.55;80.29
75697;BME280;64312;44.738;20.612;2023-04-01T22:58:33;99423.94;;;11.08;80.62
75697;BME280;64312;44.738;20.612;2023-04-01T23:01:04;99403.31;;;10.89;80.09
75697;BME280;64312;44.738;20.612;2023-04-01T23:03:34;99394.19;;;10.90;79.85
75697;BME280;64312;44.738;20.612;2023-04-01T23:06:03;99336.03;;;10.50;79.42
75697;BME280;64312;44.738;20.612;2023-04-01T23:11:10;99215.38;;;9.71;79.67
75697;BME280;64312;44.738;20.612;2023-04-01T23:14:05;99405.34;;;10.93;79.42
75697;BME280;64312;44.738;20.612;2023-04-01T23:16:41;99247.34;;;9.92;79.54
75697;BME280;64312;44.738;20.612;2023-04-01T23:19:26;99430.56;;;11.05;79.77
75697;BME280;64312;44.738;20.612;2023-04-01T23:24:44;99225.47;;;9.75;79.59
75697;BME280;64312;44.738;20.612;2023-04-01T23:27:23;99391.19;;;10.73;80.17
75697;BME280;64312;44.738;20.612;2023-04-01T23:29:53;99435.38;;;10.97;79.99
75697;BME280;64312;44.738;20.612;2023-04-01T23:32:23;99210.88;;;9.52;80.11
75697;BME280;64312;44.738;20.612;2023-04-01T23:34:54;99446.59;;;10.87;78.96
75697;BME280;64312;44.738;20.612;2023-04-01T23:37:21;99439.34;;;10.88;80.33
75697;BME280;64312;44.738;20.612;2023-04-01T23:39:50;99374.38;;;10.39;79.41
75697;BME280;64312;44.738;20.612;2023-04-01T23:42:30;99234.19;;;9.64;79.47
75697;BME280;64312;44.738;20.612;2023-04-01T23:45:03;99417.69;;;10.76;80.49
75697;BME280;64312;44.738;20.612;2023-04-01T23:47:36;99357.78;;;10.42;78.82
75697;BME280;64312;44.738;20.612;2023-04-01T23:50:07;99273.59;;;9.90;80.48
75697;BME280;64312;44.738;20.612;2023-04-01T23:52:40;99292.56;;;10.02;79.63
75697;BME280;64312;44.738;20.612;2023-04-01T23:57:36;99431.31;;;10.81;80.69
